Whittemore, Iowa
Current Conditions -  °F | °C
As of 7:35 AM on Thursday 30 Oct 2014 (Local Time) from KAXA Reporting Station
Overcast Overcast  
Wind Chill: 43°   Ceiling: 7000
Heat Index: 43°   Visibility: 10mi
Dew Point: 37°   Wind: 0mph
Humidity: 81%   Direction: NA
Pressure: 30.02"   Gusts: NA
Location:  43.06°N, 94.43°W
Report Text: KAXA 301235Z AUTO 00000KT 10SM OVC070 06/03 A3002 RMK AO2
Loading
Personal Weather Stations






























Interactive Weather Map
Tropical Storm Tracking
New forecast layout! Learn more

10-Day Weather Forecast

Advertisements
Track Severe Weather on mobile